createdAt,value
2022-09-02T00:01:01.109Z,42.77
2022-09-02T00:02:08.482Z,42.84
2022-09-02T00:03:15.655Z,42.77
2022-09-02T00:04:25.517Z,42.73
2022-09-02T00:05:31.310Z,42.77
2022-09-02T00:06:37.327Z,42.80
2022-09-02T00:07:43.386Z,42.75
2022-09-02T00:08:50.209Z,42.80
2022-09-02T00:09:56.347Z,42.80
2022-09-02T00:11:06.394Z,42.82
2022-09-02T00:12:13.667Z,42.89
2022-09-02T00:13:22.888Z,42.90
2022-09-02T00:14:38.307Z,42.91
2022-09-02T00:15:45.466Z,42.97
2022-09-02T00:16:52.950Z,43.02
2022-09-02T00:18:02.117Z,43.04
2022-09-02T00:19:09.309Z,43.09
2022-09-02T00:20:15.587Z,42.97
2022-09-02T00:21:22.754Z,43.10
2022-09-02T00:22:29.996Z,42.99
2022-09-02T00:23:36.367Z,42.87
2022-09-02T00:24:44.918Z,42.92
2022-09-02T00:25:53.708Z,42.89
2022-09-02T00:26:59.644Z,42.90
2022-09-02T00:28:05.899Z,42.96
2022-09-02T00:29:12.347Z,42.83
2022-09-02T00:30:18.267Z,42.69
2022-09-02T00:31:25.958Z,42.57
2022-09-02T00:32:34.947Z,42.45
2022-09-02T00:33:41.955Z,42.41
2022-09-02T00:34:49.536Z,42.37
2022-09-02T00:35:55.617Z,42.35
2022-09-02T00:37:01.558Z,42.43
2022-09-02T00:38:07.605Z,42.44
2022-09-02T00:39:13.388Z,42.38
2022-09-02T00:40:19.674Z,42.36
2022-09-02T00:41:27.187Z,42.33
2022-09-02T00:42:35.035Z,42.36
2022-09-02T00:43:47.689Z,42.38
2022-09-02T00:44:53.716Z,42.24
2022-09-02T00:46:01.454Z,42.17
2022-09-02T00:47:07.788Z,42.06
2022-09-02T00:48:13.598Z,42.11
2022-09-02T00:49:30.829Z,42.06
2022-09-02T00:50:37.714Z,41.91
2022-09-02T00:52:08.941Z,41.87
2022-09-02T00:53:15.627Z,41.83
2022-09-02T00:54:24.477Z,41.70
2022-09-02T00:55:37.649Z,41.76
2022-09-02T00:56:46.708Z,41.67
2022-09-02T00:58:03.257Z,41.59
2022-09-02T00:59:28.587Z,41.61
2022-09-02T01:00:43.022Z,41.62
2022-09-02T01:01:49.602Z,41.46
2022-09-02T01:02:59.687Z,41.39
2022-09-02T01:04:07.179Z,41.52
2022-09-02T01:05:14.037Z,41.51
2022-09-02T01:06:25.174Z,41.41
2022-09-02T01:07:34.913Z,41.30
2022-09-02T01:08:41.354Z,41.18
2022-09-02T01:09:52.367Z,41.13
2022-09-02T01:10:58.937Z,40.98
2022-09-02T01:12:05.866Z,40.89
2022-09-02T01:13:14.515Z,40.75
2022-09-02T01:14:22.815Z,40.73
2022-09-02T01:15:31.335Z,40.83
2022-09-02T01:16:49.572Z,40.76
2022-09-02T01:17:57.628Z,40.65
2022-09-02T01:19:04.359Z,40.53
2022-09-02T01:20:15.255Z,40.53
2022-09-02T01:21:21.806Z,40.45
2022-09-02T01:22:29.445Z,40.25
2022-09-02T01:23:36.928Z,40.14
2022-09-02T01:24:44.545Z,40.01
2022-09-02T01:25:50.787Z,39.87
2022-09-02T01:26:58.502Z,39.86
2022-09-02T01:28:09.904Z,39.74
2022-09-02T01:29:17.448Z,39.70
2022-09-02T01:30:24.724Z,39.71
2022-09-02T01:31:31.309Z,39.60
2022-09-02T01:32:37.185Z,39.49
2022-09-02T01:33:45.338Z,39.46
2022-09-02T01:34:52.327Z,39.41
2022-09-02T01:35:58.668Z,39.31
2022-09-02T01:37:04.774Z,39.21
2022-09-02T01:38:12.141Z,39.09
2022-09-02T01:39:18.207Z,39.03
2022-09-02T01:40:24.623Z,38.92
2022-09-02T01:41:30.555Z,38.81
2022-09-02T01:42:36.567Z,38.74
2022-09-02T01:43:42.717Z,38.71
2022-09-02T01:44:51.247Z,38.63
2022-09-02T01:45:59.041Z,38.51
2022-09-02T01:47:07.416Z,38.37
2022-09-02T01:48:13.494Z,38.30
2022-09-02T01:49:22.295Z,38.20
2022-09-02T01:50:29.435Z,38.09
2022-09-02T01:51:35.912Z,37.96
2022-09-02T01:52:42.153Z,37.78
2022-09-02T01:53:49.193Z,37.68
2022-09-02T01:54:54.915Z,37.56
2022-09-02T01:56:01.207Z,37.43
2022-09-02T01:57:11.257Z,37.28
2022-09-02T01:58:17.837Z,37.12
2022-09-02T01:59:24.834Z,36.94
2022-09-02T02:00:32.202Z,36.78
2022-09-02T02:01:38.054Z,36.62
2022-09-02T02:02:44.197Z,36.44
2022-09-02T02:03:51.787Z,36.29
2022-09-02T02:04:59.117Z,36.13
2022-09-02T02:06:12.328Z,35.98
2022-09-02T02:07:19.938Z,35.84
2022-09-02T02:08:26.355Z,35.70
2022-09-02T02:09:32.628Z,35.58
2022-09-02T02:10:43.368Z,35.46
2022-09-02T02:11:50.928Z,35.35
2022-09-02T02:12:57.546Z,35.23
2022-09-02T02:14:03.897Z,35.12
2022-09-02T02:15:11.646Z,35.02
2022-09-02T02:16:17.666Z,34.92
2022-09-02T02:17:23.999Z,34.82
2022-09-02T02:18:32.603Z,34.74
2022-09-02T02:19:38.642Z,34.65
2022-09-02T02:20:45.200Z,34.58
2022-09-02T02:21:52.447Z,34.48
2022-09-02T02:22:58.628Z,34.41
2022-09-02T02:24:04.558Z,34.34
2022-09-02T02:25:12.346Z,34.26
2022-09-02T02:26:19.658Z,34.18
2022-09-02T02:27:26.926Z,34.10
2022-09-02T02:28:32.977Z,34.03
2022-09-02T02:29:41.216Z,33.97
2022-09-02T02:30:47.075Z,33.90
2022-09-02T02:31:53.611Z,33.84
2022-09-02T02:32:59.835Z,33.78
2022-09-02T02:34:05.839Z,33.73
2022-09-02T02:35:12.230Z,33.66
2022-09-02T02:36:20.120Z,33.62
2022-09-02T02:37:26.242Z,33.56
2022-09-02T02:38:35.767Z,33.51
2022-09-02T02:39:42.149Z,33.46
2022-09-02T02:40:48.452Z,33.41
2022-09-02T02:41:55.977Z,33.35
2022-09-02T02:43:02.017Z,33.31
2022-09-02T02:44:08.311Z,33.27
2022-09-02T02:45:16.868Z,33.22
2022-09-02T02:46:22.700Z,33.18
2022-09-02T02:47:29.310Z,33.14
2022-09-02T02:48:37.088Z,33.12
2022-09-02T02:49:44.007Z,33.09
2022-09-02T02:50:55.219Z,33.06
2022-09-02T02:52:01.189Z,33.02
2022-09-02T02:53:07.387Z,32.99
2022-09-02T02:54:14.949Z,32.94
2022-09-02T02:55:23.482Z,32.88
2022-09-02T02:56:30.599Z,32.82
2022-09-02T02:57:36.598Z,32.78
2022-09-02T02:58:43.944Z,32.75
2022-09-02T02:59:50.271Z,32.72
2022-09-02T03:00:58.856Z,32.68
2022-09-02T03:02:06.962Z,32.63
2022-09-02T03:03:15.548Z,32.59
2022-09-02T03:04:21.345Z,32.54
2022-09-02T03:05:27.267Z,32.48
2022-09-02T03:06:34.618Z,32.43
2022-09-02T03:07:41.038Z,32.39
2022-09-02T03:08:48.437Z,32.34
2022-09-02T03:09:58.156Z,32.29
2022-09-02T03:11:06.391Z,32.25
2022-09-02T03:12:17.207Z,32.20
2022-09-02T03:13:26.667Z,32.15
2022-09-02T03:14:35.599Z,32.11
2022-09-02T03:15:43.737Z,32.06
2022-09-02T03:16:50.117Z,32.03
2022-09-02T03:17:56.319Z,31.99
2022-09-02T03:19:03.656Z,31.94
2022-09-02T03:20:09.778Z,31.91
2022-09-02T03:21:17.029Z,31.85
2022-09-02T03:22:23.377Z,31.80
2022-09-02T03:23:30.718Z,31.75
2022-09-02T03:24:38.400Z,31.70
2022-09-02T03:25:45.378Z,31.67
2022-09-02T03:27:06.328Z,31.62
2022-09-02T03:28:13.245Z,31.59
2022-09-02T03:29:21.878Z,31.56
2022-09-02T03:30:30.908Z,31.52
2022-09-02T03:31:36.962Z,31.49
2022-09-02T03:32:44.398Z,31.45
2022-09-02T03:33:50.877Z,31.41
2022-09-02T03:34:56.873Z,31.37
2022-09-02T03:36:04.237Z,31.33
2022-09-02T03:37:11.707Z,31.27
2022-09-02T03:38:18.946Z,31.21
2022-09-02T03:39:25.088Z,31.15
2022-09-02T03:40:31.527Z,31.10
2022-09-02T03:41:38.577Z,31.05
2022-09-02T03:42:45.588Z,31.01
2022-09-02T03:43:54.558Z,30.96
2022-09-02T03:45:03.577Z,30.90
2022-09-02T03:46:10.772Z,30.85
2022-09-02T03:47:20.752Z,30.81
2022-09-02T03:48:32.305Z,30.75
2022-09-02T03:49:39.624Z,30.71
2022-09-02T03:50:51.427Z,30.69
2022-09-02T03:51:58.075Z,30.66
2022-09-02T03:53:04.058Z,30.63
2022-09-02T03:54:10.821Z,30.61
2022-09-02T03:55:17.163Z,30.57
2022-09-02T03:56:23.727Z,30.54
2022-09-02T03:57:29.827Z,30.51
2022-09-02T03:58:35.938Z,30.48
2022-09-02T03:59:43.193Z,30.44
2022-09-02T04:00:53.826Z,30.40
2022-09-02T04:02:03.454Z,30.35
2022-09-02T04:03:10.778Z,30.31
2022-09-02T04:04:19.757Z,30.25
2022-09-02T04:05:32.846Z,30.19
2022-09-02T04:06:39.118Z,30.15
2022-09-02T04:07:47.186Z,30.12
2022-09-02T04:08:55.002Z,30.07
2022-09-02T04:10:02.348Z,30.03
2022-09-02T04:11:09.577Z,30.00
2022-09-02T04:12:15.663Z,29.96
2022-09-02T04:13:22.877Z,29.92
2022-09-02T04:14:29.676Z,29.87
2022-09-02T04:15:35.518Z,29.82
2022-09-02T04:16:41.263Z,29.78
2022-09-02T04:17:47.318Z,29.75
2022-09-02T04:18:58.689Z,29.71
2022-09-02T04:20:06.610Z,29.67
2022-09-02T04:21:16.519Z,29.64
2022-09-02T04:22:22.989Z,29.61
2022-09-02T04:23:29.347Z,29.57
2022-09-02T04:24:36.195Z,29.53
2022-09-02T04:25:44.800Z,29.49
2022-09-02T04:26:53.606Z,29.46
2022-09-02T04:27:59.435Z,29.44
2022-09-02T04:29:08.487Z,29.43
2022-09-02T04:30:16.985Z,29.41
2022-09-02T04:31:26.108Z,29.38
2022-09-02T04:32:37.130Z,29.33
2022-09-02T04:33:48.396Z,29.30
2022-09-02T04:34:54.967Z,29.27
2022-09-02T04:36:04.974Z,29.23
2022-09-02T04:37:11.668Z,29.20
2022-09-02T04:38:18.239Z,29.15
2022-09-02T04:39:48.643Z,29.11
2022-09-02T04:40:55.957Z,29.06
2022-09-02T04:42:01.708Z,29.02
2022-09-02T04:43:08.511Z,28.97
2022-09-02T04:44:15.569Z,28.94
2022-09-02T04:45:27.794Z,28.91
2022-09-02T04:46:37.796Z,28.86
2022-09-02T04:47:47.215Z,28.82
2022-09-02T04:48:53.710Z,28.77
2022-09-02T04:50:01.826Z,28.72
2022-09-02T04:51:10.597Z,28.67
2022-09-02T04:52:16.975Z,28.62
2022-09-02T04:53:23.955Z,28.58
2022-09-02T04:54:29.945Z,28.53
2022-09-02T04:55:37.147Z,28.50
2022-09-02T04:56:44.275Z,28.47
2022-09-02T04:57:50.497Z,28.42
2022-09-02T04:58:58.067Z,28.39
2022-09-02T05:00:07.989Z,28.35
2022-09-02T05:01:16.081Z,28.32
2022-09-02T05:02:23.849Z,28.27
2022-09-02T05:03:32.267Z,28.25
2022-09-02T05:04:38.586Z,28.24
2022-09-02T05:05:49.462Z,28.22
2022-09-02T05:06:56.395Z,28.20
2022-09-02T05:08:05.387Z,28.19
2022-09-02T05:09:12.827Z,28.17
2022-09-02T05:10:18.856Z,28.14
2022-09-02T05:11:30.390Z,28.13
2022-09-02T05:12:36.547Z,28.11
2022-09-02T05:13:44.967Z,28.11
2022-09-02T05:14:52.599Z,28.10
2022-09-02T05:15:59.147Z,28.10
2022-09-02T05:17:07.819Z,28.08
2022-09-02T05:18:16.768Z,28.06
2022-09-02T05:19:24.027Z,28.04
2022-09-02T05:20:30.135Z,28.00
2022-09-02T05:21:42.478Z,27.97
2022-09-02T05:22:50.639Z,27.94
2022-09-02T05:23:58.017Z,27.91
2022-09-02T05:25:08.075Z,27.88
2022-09-02T05:26:14.090Z,27.84
2022-09-02T05:27:24.107Z,27.82
2022-09-02T05:28:33.964Z,27.78
2022-09-02T05:29:45.328Z,27.76
2022-09-02T05:30:53.576Z,27.74
2022-09-02T05:32:00.386Z,27.74
2022-09-02T05:33:06.868Z,27.75
2022-09-02T05:34:12.877Z,27.75
2022-09-02T05:35:19.966Z,27.76
2022-09-02T05:36:26.758Z,27.78
2022-09-02T05:37:37.434Z,27.79
2022-09-02T05:38:45.797Z,27.80
2022-09-02T05:39:51.954Z,27.79
2022-09-02T05:40:58.244Z,27.78
2022-09-02T05:42:04.887Z,27.76
2022-09-02T05:43:11.705Z,27.75
2022-09-02T05:44:17.617Z,27.72
2022-09-02T05:45:24.667Z,27.69
2022-09-02T05:46:32.273Z,27.65
2022-09-02T05:47:38.249Z,27.61
2022-09-02T05:49:04.328Z,27.57
2022-09-02T05:50:13.242Z,27.52
2022-09-02T05:51:21.387Z,27.49
2022-09-02T05:52:29.628Z,27.47
2022-09-02T05:53:37.927Z,27.44
2022-09-02T05:54:43.787Z,27.41
2022-09-02T05:55:52.228Z,27.37
2022-09-02T05:56:59.776Z,27.34
2022-09-02T05:58:09.409Z,27.29
2022-09-02T05:59:17.398Z,27.26
2022-09-02T06:00:25.227Z,27.24
2022-09-02T06:01:34.760Z,27.24
2022-09-02T06:02:42.355Z,27.23
2022-09-02T06:03:58.239Z,27.20
2022-09-02T06:05:05.587Z,27.17
2022-09-02T06:06:12.798Z,27.13
2022-09-02T06:07:22.995Z,27.10
2022-09-02T06:08:29.875Z,27.04
2022-09-02T06:09:35.959Z,27.01
2022-09-02T06:10:45.557Z,26.99
2022-09-02T06:11:54.897Z,26.97
2022-09-02T06:13:03.277Z,26.94
2022-09-02T06:14:10.627Z,26.91
2022-09-02T06:15:17.398Z,26.87
2022-09-02T06:16:23.728Z,26.85
2022-09-02T06:17:31.036Z,26.83
2022-09-02T06:18:36.935Z,26.80
2022-09-02T06:19:42.877Z,26.78
2022-09-02T06:20:50.068Z,26.78
2022-09-02T06:21:57.667Z,26.77
2022-09-02T06:23:04.767Z,26.75
2022-09-02T06:24:11.878Z,26.74
2022-09-02T06:25:18.478Z,26.72
2022-09-02T06:26:24.599Z,26.68
2022-09-02T06:27:31.899Z,26.64
2022-09-02T06:28:40.680Z,26.59
2022-09-02T06:29:46.808Z,26.56
2022-09-02T06:30:57.068Z,26.56
2022-09-02T06:32:06.007Z,26.57
2022-09-02T06:33:14.162Z,26.55
2022-09-02T06:34:22.407Z,26.54
2022-09-02T06:35:28.436Z,26.53
2022-09-02T06:36:35.876Z,26.52
2022-09-02T06:37:42.837Z,26.50
2022-09-02T06:38:49.867Z,26.48
2022-09-02T06:39:56.127Z,26.45
2022-09-02T06:41:03.948Z,26.43
2022-09-02T06:42:15.647Z,26.41
2022-09-02T06:43:26.987Z,26.40
2022-09-02T06:44:47.627Z,26.37
2022-09-02T06:45:54.583Z,26.35
2022-09-02T06:47:03.535Z,26.33
2022-09-02T06:48:12.407Z,26.31
2022-09-02T06:49:18.506Z,26.30
2022-09-02T06:50:26.230Z,26.30
2022-09-02T06:51:36.297Z,26.30
2022-09-02T06:52:42.558Z,26.30
2022-09-02T06:53:49.960Z,26.31
2022-09-02T06:54:56.267Z,26.31
2022-09-02T06:56:03.067Z,26.32
2022-09-02T06:57:08.787Z,26.31
2022-09-02T06:58:15.247Z,26.31
2022-09-02T06:59:23.469Z,26.32
2022-09-02T07:00:35.998Z,26.33
2022-09-02T07:01:43.744Z,26.35
2022-09-02T07:03:10.178Z,26.35
2022-09-02T07:04:35.640Z,26.37
2022-09-02T07:05:42.254Z,26.38
2022-09-02T07:06:52.188Z,26.39
2022-09-02T07:07:59.438Z,26.40
2022-09-02T07:09:07.413Z,26.41
2022-09-02T07:10:14.647Z,26.42
2022-09-02T07:11:24.808Z,26.43
2022-09-02T07:12:32.227Z,26.46
2022-09-02T07:13:42.708Z,26.49
2022-09-02T07:14:48.945Z,26.52
2022-09-02T07:15:59.709Z,26.55
2022-09-02T07:17:07.596Z,26.57
2022-09-02T07:18:16.237Z,26.59
2022-09-02T07:19:25.188Z,26.61
2022-09-02T07:20:32.135Z,26.62
2022-09-02T07:21:41.237Z,26.62
2022-09-02T07:22:48.078Z,26.62
2022-09-02T07:23:55.153Z,26.63
2022-09-02T07:25:01.357Z,26.62
2022-09-02T07:26:18.817Z,26.61
2022-09-02T07:27:25.677Z,26.61
2022-09-02T07:28:35.120Z,26.60
2022-09-02T07:29:49.318Z,26.58
2022-09-02T07:30:59.939Z,26.55
2022-09-02T07:32:06.977Z,26.53
2022-09-02T07:33:14.492Z,26.50
2022-09-02T07:34:22.917Z,26.46
2022-09-02T07:35:29.459Z,26.41
2022-09-02T07:36:35.889Z,26.37
2022-09-02T07:37:42.047Z,26.31
2022-09-02T07:38:50.307Z,26.26
2022-09-02T07:39:57.179Z,26.20
2022-09-02T07:41:03.337Z,26.15
2022-09-02T07:42:09.621Z,26.10
2022-09-02T07:43:15.669Z,26.05
2022-09-02T07:44:23.357Z,26.00
2022-09-02T07:45:29.809Z,25.96
2022-09-02T07:46:36.098Z,25.91
2022-09-02T07:47:45.845Z,25.86
2022-09-02T07:48:54.498Z,25.81
2022-09-02T07:50:19.852Z,25.77
2022-09-02T07:51:34.679Z,25.71
2022-09-02T07:52:40.778Z,25.66
2022-09-02T07:53:51.956Z,25.62
2022-09-02T07:54:58.988Z,25.58
2022-09-02T07:56:05.328Z,25.55
2022-09-02T07:57:10.957Z,25.52
2022-09-02T07:58:17.106Z,25.49
2022-09-02T07:59:23.037Z,25.45
2022-09-02T08:00:30.183Z,25.42
2022-09-02T08:02:52.095Z,25.37
2022-09-02T08:04:05.694Z,25.34
2022-09-02T08:05:13.791Z,25.30
2022-09-02T08:06:29.730Z,25.27
2022-09-02T08:07:41.585Z,25.23
2022-09-02T08:08:48.318Z,25.21
2022-09-02T08:09:54.507Z,25.17
2022-09-02T08:12:18.923Z,25.14
2022-09-02T08:13:30.638Z,25.12
2022-09-02T08:14:37.617Z,25.10
2022-09-02T08:15:43.344Z,25.08
2022-09-02T08:16:48.865Z,25.06
2022-09-02T08:17:54.984Z,25.06
2022-09-02T08:19:02.127Z,25.06
2022-09-02T08:20:12.301Z,25.06
2022-09-02T08:21:19.837Z,25.09
2022-09-02T08:22:26.554Z,25.12
2022-09-02T08:23:37.117Z,25.13
2022-09-02T08:24:44.827Z,25.16
2022-09-02T08:25:51.135Z,25.18
2022-09-02T08:26:56.877Z,25.18
2022-09-02T08:28:05.688Z,25.18
2022-09-02T08:29:12.096Z,25.18
2022-09-02T08:30:18.108Z,25.18
2022-09-02T08:31:24.146Z,25.17
2022-09-02T08:32:33.358Z,25.15
2022-09-02T08:33:40.687Z,25.14
2022-09-02T08:34:46.887Z,25.12
2022-09-02T08:35:53.115Z,25.10
2022-09-02T08:36:59.635Z,25.08
2022-09-02T08:38:05.519Z,25.05
2022-09-02T08:39:11.802Z,25.03
2022-09-02T08:40:23.329Z,25.00
2022-09-02T08:41:53.310Z,24.97
2022-09-02T08:42:59.855Z,24.93
2022-09-02T08:44:08.267Z,24.88
2022-09-02T08:45:37.896Z,24.85
2022-09-02T08:46:43.547Z,24.80
2022-09-02T08:47:52.657Z,24.77
2022-09-02T08:49:04.709Z,24.73
2022-09-02T08:50:20.248Z,24.71
2022-09-02T08:51:33.854Z,24.70
2022-09-02T08:53:11.139Z,24.68
2022-09-02T08:54:23.274Z,24.68
2022-09-02T08:55:41.367Z,24.67
2022-09-02T08:56:52.326Z,24.68
2022-09-02T08:57:59.495Z,24.67
2022-09-02T08:59:07.747Z,24.67
2022-09-02T09:00:14.485Z,24.65
2022-09-02T09:01:42.736Z,24.63
2022-09-02T09:03:19.068Z,24.59
2022-09-02T09:05:10.116Z,24.55
2022-09-02T09:06:35.607Z,24.53
2022-09-02T09:08:21.691Z,24.51
2022-09-02T09:09:28.589Z,24.50
2022-09-02T09:10:55.695Z,24.48
2022-09-02T09:12:33.758Z,24.45
2022-09-02T09:13:54.808Z,24.42
2022-09-02T09:15:06.480Z,24.41
2022-09-02T09:16:41.474Z,24.39
2022-09-02T09:17:49.561Z,24.36
2022-09-02T09:19:03.814Z,24.34
2022-09-02T09:20:25.776Z,24.31
2022-09-02T09:21:33.868Z,24.28
2022-09-02T09:22:40.867Z,24.26
2022-09-02T09:23:47.197Z,24.22
2022-09-02T09:24:54.075Z,24.19
2022-09-02T09:26:08.196Z,24.15
2022-09-02T09:27:22.796Z,24.11
2022-09-02T09:28:29.436Z,24.08
2022-09-02T09:29:37.094Z,24.04
2022-09-02T09:30:44.634Z,24.03
2022-09-02T09:31:58.280Z,24.02
2022-09-02T09:33:05.719Z,24.01
2022-09-02T09:34:13.286Z,23.99
2022-09-02T09:35:19.546Z,23.97
2022-09-02T09:36:54.546Z,23.95
2022-09-02T09:38:00.417Z,23.92
2022-09-02T09:39:33.068Z,23.91
2022-09-02T09:40:41.210Z,23.95
2022-09-02T09:41:47.555Z,23.99
2022-09-02T09:42:58.184Z,24.03
2022-09-02T09:44:05.745Z,24.06
2022-09-02T09:45:21.743Z,24.08
2022-09-02T09:46:29.389Z,24.10
2022-09-02T09:47:35.186Z,24.12
2022-09-02T09:48:43.506Z,24.14
2022-09-02T09:50:10.316Z,24.16
2022-09-02T09:51:16.906Z,24.20
2022-09-02T09:52:27.197Z,24.22
2022-09-02T09:53:35.758Z,24.25
2022-09-02T09:54:41.367Z,24.28
2022-09-02T09:55:54.595Z,24.32
2022-09-02T09:57:21.572Z,24.36
2022-09-02T09:58:48.147Z,24.41
2022-09-02T09:59:57.511Z,24.46
2022-09-02T10:01:26.086Z,24.51
2022-09-02T10:02:36.312Z,24.54
2022-09-02T10:04:12.159Z,24.57
2022-09-02T10:05:37.096Z,24.61
2022-09-02T10:06:49.711Z,24.63
2022-09-02T10:07:59.995Z,24.63
2022-09-02T10:09:08.786Z,24.63
2022-09-02T10:10:22.808Z,24.63
2022-09-02T10:11:39.237Z,24.63
2022-09-02T10:12:45.389Z,24.63
2022-09-02T10:13:52.483Z,24.64
2022-09-02T10:14:59.627Z,24.65
2022-09-02T10:16:20.378Z,24.67
2022-09-02T10:17:59.037Z,24.69
2022-09-02T10:19:10.124Z,24.71
2022-09-02T10:20:23.317Z,24.74
2022-09-02T10:21:46.498Z,24.76
2022-09-02T10:23:39.634Z,24.78
2022-09-02T10:24:49.426Z,24.81
2022-09-02T10:26:22.311Z,24.82
2022-09-02T10:28:01.587Z,24.84
2022-09-02T10:29:29.626Z,24.85
2022-09-02T10:31:04.113Z,24.87
2022-09-02T10:32:34.783Z,24.89
2022-09-02T10:33:57.946Z,24.91
2022-09-02T10:35:44.117Z,24.94
2022-09-02T10:37:21.598Z,24.98
2022-09-02T10:38:42.246Z,25.00
2022-09-02T10:40:07.369Z,25.02
2022-09-02T10:41:53.286Z,25.02
2022-09-02T10:43:21.504Z,25.03
2022-09-02T10:44:42.192Z,25.03
2022-09-02T10:45:49.075Z,25.03
2022-09-02T10:47:02.265Z,25.04
2022-09-02T10:48:35.803Z,25.05
2022-09-02T10:50:10.936Z,25.07
2022-09-02T10:51:50.966Z,25.07
2022-09-02T10:53:35.335Z,25.07
2022-09-02T10:55:27.790Z,25.05
2022-09-02T10:56:38.937Z,25.04
2022-09-02T10:58:00.314Z,25.04
2022-09-02T10:59:17.754Z,25.05
2022-09-02T11:00:24.417Z,25.06
2022-09-02T11:01:36.934Z,25.07
2022-09-02T11:02:46.823Z,25.07
2022-09-02T11:04:11.251Z,25.06
2022-09-02T11:05:26.578Z,25.05
2022-09-02T11:06:45.993Z,25.05
2022-09-02T11:08:19.651Z,25.05
2022-09-02T11:10:13.625Z,25.06
2022-09-02T11:11:49.798Z,25.07
2022-09-02T11:13:25.793Z,25.08
2022-09-02T11:14:49.815Z,25.08
2022-09-02T11:16:09.344Z,25.07
2022-09-02T11:17:31.544Z,25.05
2022-09-02T11:18:45.577Z,25.03
2022-09-02T11:20:21.307Z,25.01
2022-09-02T11:21:51.414Z,24.99
2022-09-02T11:23:03.595Z,24.96
2022-09-02T11:24:23.888Z,24.95
2022-09-02T11:25:39.036Z,24.94
2022-09-02T11:26:53.546Z,24.91
2022-09-02T11:28:06.923Z,24.86
2022-09-02T11:29:23.594Z,24.80
2022-09-02T11:30:44.587Z,24.73
2022-09-02T11:32:04.435Z,24.66
2022-09-02T11:33:21.213Z,24.60
2022-09-02T11:34:56.392Z,24.55
2022-09-02T11:36:02.268Z,24.50
2022-09-02T11:37:10.900Z,24.46
2022-09-02T11:38:53.286Z,24.44
2022-09-02T11:40:34.308Z,24.40
2022-09-02T11:41:54.505Z,24.37
2022-09-02T11:43:24.955Z,24.34
2022-09-02T11:44:33.675Z,24.32
2022-09-02T11:46:05.659Z,24.32
2022-09-02T11:47:45.511Z,24.32
2022-09-02T11:49:23.834Z,24.30
2022-09-02T11:50:58.507Z,24.29
2022-09-02T11:53:43.744Z,24.31
2022-09-02T11:55:09.865Z,24.31
2022-09-02T11:56:25.118Z,24.29
2022-09-02T11:57:31.746Z,24.26
2022-09-02T11:58:45.787Z,24.23
2022-09-02T11:59:54.717Z,24.21
2022-09-02T12:01:01.667Z,24.18
2022-09-02T12:02:07.794Z,24.16
2022-09-02T12:03:38.895Z,24.13
2022-09-02T12:05:00.087Z,24.08
2022-09-02T12:06:09.896Z,24.03
2022-09-02T12:07:16.195Z,23.99
2022-09-02T12:08:37.567Z,23.95
2022-09-02T12:09:56.782Z,23.90
2022-09-02T12:11:07.785Z,23.86
2022-09-02T12:12:39.333Z,23.82
2022-09-02T12:15:15.546Z,23.75
2022-09-02T12:16:21.894Z,23.70
2022-09-02T12:17:47.018Z,23.67
2022-09-02T12:18:58.988Z,23.62
2022-09-02T12:20:06.777Z,23.58
2022-09-02T12:21:19.446Z,23.56
2022-09-02T12:22:34.606Z,23.53
2022-09-02T12:23:59.018Z,23.51
2022-09-02T12:25:04.806Z,23.51
2022-09-02T12:26:15.891Z,23.52
2022-09-02T12:27:25.747Z,23.53
2022-09-02T12:28:32.564Z,23.52
2022-09-02T12:29:40.145Z,23.53
2022-09-02T12:31:10.864Z,23.52
2022-09-02T12:32:46.427Z,23.50
2022-09-02T12:33:53.695Z,23.48
2022-09-02T12:35:10.648Z,23.46
2022-09-02T12:36:38.637Z,23.45
2022-09-02T12:37:54.826Z,23.43
2022-09-02T12:39:28.846Z,23.41
2022-09-02T12:40:38.008Z,23.39
2022-09-02T12:41:44.947Z,23.37
2022-09-02T12:42:50.996Z,23.35
2022-09-02T12:44:18.637Z,23.33
2022-09-02T12:45:29.453Z,23.31
2022-09-02T12:47:12.226Z,23.28
2022-09-02T12:48:30.444Z,23.24
2022-09-02T12:50:03.695Z,23.22
2022-09-02T12:51:13.431Z,23.22
2022-09-02T12:52:37.239Z,23.23
2022-09-02T12:53:50.751Z,23.23
2022-09-02T12:54:59.515Z,23.22
2022-09-02T12:56:17.584Z,23.19
2022-09-02T12:57:23.958Z,23.17
2022-09-02T12:58:43.976Z,23.15
2022-09-02T12:59:50.808Z,23.13
2022-09-02T13:01:11.886Z,23.12
2022-09-02T13:02:26.851Z,23.10
2022-09-02T13:03:58.370Z,23.08
2022-09-02T13:05:30.337Z,23.07
2022-09-02T13:06:46.024Z,23.07
2022-09-02T13:08:18.146Z,23.08
2022-09-02T13:09:43.206Z,23.08
2022-09-02T13:10:56.686Z,23.08
2022-09-02T13:12:20.752Z,23.07
2022-09-02T13:13:36.256Z,23.05
2022-09-02T13:14:59.036Z,23.02
2022-09-02T13:16:30.396Z,22.99
2022-09-02T13:18:01.378Z,22.93
2022-09-02T13:19:33.177Z,22.89
2022-09-02T13:21:16.286Z,22.85
2022-09-02T13:22:31.266Z,22.81
2022-09-02T13:24:31.407Z,22.80
2022-09-02T13:25:52.248Z,22.81
2022-09-02T13:27:00.666Z,22.84
2022-09-02T13:28:23.918Z,22.86
2022-09-02T13:29:34.667Z,22.89
2022-09-02T13:31:14.366Z,22.92
2022-09-02T13:32:30.189Z,22.96
2022-09-02T13:33:41.898Z,22.99
2022-09-02T13:34:50.076Z,23.02
2022-09-02T13:35:59.797Z,23.05
2022-09-02T13:37:05.746Z,23.09
2022-09-02T13:38:15.019Z,23.11
2022-09-02T13:39:27.998Z,23.14
2022-09-02T13:40:40.136Z,23.17
2022-09-02T13:41:49.834Z,23.22
2022-09-02T13:42:58.315Z,23.26
2022-09-02T13:44:13.926Z,23.32
2022-09-02T13:45:21.304Z,23.37
2022-09-02T13:46:27.281Z,23.43
2022-09-02T13:47:34.207Z,23.48
2022-09-02T13:48:40.446Z,23.53
2022-09-02T13:49:48.006Z,23.58
2022-09-02T13:50:56.367Z,23.63
2022-09-02T13:52:02.287Z,23.68
2022-09-02T13:54:37.505Z,23.88
2022-09-02T13:55:51.688Z,24.07
2022-09-02T13:56:59.006Z,24.28
2022-09-02T13:58:09.510Z,24.47
2022-09-02T13:59:15.808Z,24.68
2022-09-02T14:00:33.393Z,24.87
2022-09-02T14:01:40.759Z,25.09
2022-09-02T14:02:59.087Z,25.27
2022-09-02T14:04:10.771Z,25.46
2022-09-02T14:05:22.735Z,25.66
2022-09-02T14:06:40.338Z,25.87
2022-09-02T14:07:47.977Z,26.06
2022-09-02T14:08:56.883Z,26.20
2022-09-02T14:10:02.957Z,26.34
2022-09-02T14:11:13.865Z,26.50
2022-09-02T14:12:23.077Z,26.66
2022-09-02T14:13:30.637Z,26.79
2022-09-02T14:14:36.956Z,26.91
2022-09-02T14:15:43.189Z,27.03
2022-09-02T14:16:49.508Z,27.17
2022-09-02T14:18:18.155Z,27.26
2022-09-02T14:19:26.442Z,27.28
2022-09-02T14:20:32.367Z,27.28
2022-09-02T14:21:46.455Z,27.28
2022-09-02T14:23:01.656Z,27.29
2022-09-02T14:24:08.743Z,27.31
2022-09-02T14:25:18.918Z,27.36
2022-09-02T14:26:34.465Z,27.43
2022-09-02T14:27:48.927Z,27.54
2022-09-02T14:28:55.287Z,27.72
2022-09-02T14:30:01.385Z,27.94
2022-09-02T14:31:10.206Z,28.20
2022-09-02T14:32:21.706Z,28.48
2022-09-02T14:33:46.460Z,28.77
2022-09-02T14:35:20.507Z,29.07
2022-09-02T14:36:26.384Z,29.43
2022-09-02T14:37:33.478Z,29.71
2022-09-02T14:38:56.495Z,29.97
2022-09-02T14:40:12.083Z,30.28
2022-09-02T14:41:29.656Z,30.57
2022-09-02T14:42:57.543Z,30.84
2022-09-02T14:44:41.566Z,31.05
2022-09-02T14:45:50.779Z,31.30
2022-09-02T14:46:57.998Z,31.53
2022-09-02T14:48:11.599Z,31.71
2022-09-02T14:49:53.767Z,31.87
2022-09-02T14:51:07.144Z,32.03
2022-09-02T14:52:24.477Z,32.22
2022-09-02T14:53:30.926Z,32.44
2022-09-02T14:54:55.207Z,32.68
2022-09-02T14:56:01.088Z,32.95
2022-09-02T14:57:35.892Z,33.21
2022-09-02T14:58:42.595Z,33.55
2022-09-02T14:59:48.730Z,33.74
2022-09-02T15:00:56.208Z,33.89
2022-09-02T15:02:01.958Z,34.06
2022-09-02T15:03:07.886Z,34.24
2022-09-02T15:04:14.595Z,34.38
2022-09-02T15:05:20.655Z,34.51
2022-09-02T15:06:26.577Z,34.68
2022-09-02T15:07:32.566Z,34.87
2022-09-02T15:08:39.368Z,35.03
2022-09-02T15:09:46.515Z,35.08
2022-09-02T15:10:52.890Z,35.04
2022-09-02T15:12:02.785Z,35.02
2022-09-02T15:13:31.744Z,35.02
2022-09-02T15:14:38.867Z,35.03
2022-09-02T15:15:45.144Z,35.01
2022-09-02T15:16:51.767Z,34.95
2022-09-02T15:17:57.678Z,34.92
2022-09-02T15:19:03.847Z,34.88
2022-09-02T15:20:11.407Z,34.85
2022-09-02T15:21:17.655Z,34.84
2022-09-02T15:22:23.847Z,34.79
2022-09-02T15:23:34.816Z,34.76
2022-09-02T15:24:44.017Z,34.76
2022-09-02T15:25:50.067Z,34.73
2022-09-02T15:26:56.558Z,34.70
2022-09-02T15:28:02.977Z,34.71
2022-09-02T15:29:09.047Z,34.74
2022-09-02T15:30:16.568Z,34.80
2022-09-02T15:31:23.313Z,34.89
2022-09-02T15:32:30.659Z,34.98